CheckWX is a tool to help pilots better visualize weather data.  It is not intended as a substitute for an official pre-flight weather briefing.

19:04:53 UTC

KDRO METAR
Durango-La Plata County Airport
Durango, Colorado, USA
Current

12 mins ago

KDRO 201853Z AUTO 00000KT 10SM -RA OVC027 06/04 A2980 RMK AO2 SLP073 P0002 T00560044
Observed
Nov-20 @ 18:53 UTC
Visibility
10 SM
Flight Rules
MVFR
Conditions
Light Rain
Cloud Levels
  • Overcast at 2,700' AGL
Temperature
C / 43°F
Dewpoint
C / 39°F
Humidity
87%
Altimeter
29.8" Hg
Pressure
1009.12 hPa
Current Rain
0.02"
Previous

20 mins ago

KDRO 201845Z AUTO 10SM -RA OVC028 06/05 A2981 RMK AO2 P0002 T00560050
Observed
Nov-20 @ 18:45 UTC
Visibility
10 SM
Flight Rules
MVFR
Conditions
Light Rain
Cloud Levels
  • Overcast at 2,800' AGL
Temperature
C / 43°F
Dewpoint
C / 41°F
Humidity
93%
Altimeter
29.81" Hg
Pressure
1009.52 hPa
Current Rain
0.02"
Previous

1 hour ago

KDRO 201753Z AUTO 00000KT 10SM -RA BKN032 BKN042 OVC055 05/04 A2982 RMK AO2 RAB1656E07B35 SLP075 P0001 60040 T00500044 10050 20028 56003
Observed
Nov-20 @ 17:53 UTC
Visibility
10 SM
Flight Rules
VFR
Conditions
Light Rain
Cloud Levels
  • Broken at 3,200' AGL
  • Broken at 4,200' AGL
  • Overcast at 5,500' AGL
Temperature
C / 41°F
Dewpoint
C / 39°F
Humidity
93%
Altimeter
29.82" Hg
Pressure
1009.82 hPa
Current Rain
0.01"